Portada
METAR-TAF:

METAR-TAF

Aeropuertos :

Lérida, España

Lleida-Alguaire

latitud: 41-43-40N, longitud: 000-32-09E, altitud: 350 m

Observación

El informe se hizo hace 11 horas y 26 minutos, a las 15:30 UTC
Viento 13 kt del oeste-suroeste, variando entre sur-suroeste y oeste
Temperatura 15°C
Humedad 51%
Presión 1019 hPa
Visibilidad 10 km o más
Escasas nubes a una altura de 2000 ft

METAR: LEDA 171530Z 24013KT 210V270 9999 FEW020 15/05 Q1019

Hora: 03:56 (02:56 UTC)

Pronóstico

El informe se hizo hace 56 minutos, a las 02:00 UTC
Pronóstico válido del 18 a las 03 UTC al 19 a las 03 UTC
Viento 4 kt con dirección variable
Visibilidad 10 km o más
Escasas nubes a una altura de 4000 ft
Probabilidad 30% :
Temporalmente
del 18 a las 04 UTC al 18 a las 09 UTC
Visibilidad: 3000 m
neblina

TAF: LEDA 180200Z 1803/1903 VRB04KT 9999 FEW040 TX14/1814Z TN01/1806Z PROB30 TEMPO 1804/1809 3000 BR

Observaciones y pronósticos meteorológicos de más de 4000 aeropuertos (mensajes METAR y TAF).

Los puntos amarillos y rojos representan las estaciones disponibles.

Ponga el ratón en el punto deseado para ver el nombre de la estación.

Haga clic para ver las observaciones y los pronósticos meteorológicos.

Para cambiar el mapa : haga clic en los botones verdes con una cruz de color negro para hacer un zoom, en el botón verde con un guión para alejar o en las flechas verdes para mapas adyacentes.


METAR-TAF: